South Pasadena, CA (91031)

11:41 PM PDT on August 28, 2014 (GMT -0700)
Madison Heights | Change Station
CLOSE
Current Station
Personal Weather Station
Location: Pasadena, CA
Elevation: 791 ft
Nearby Weather Stations

Elev 791 ft 34.13 °N, 118.14 °W | Updated 8 minutes ago

Clear
Clear
66.7 °F
Feels Like 66.7 °F
N
0.0
Wind Variable Wind from SSE

Today
High -- | Low -- °F
--% Chance of Precip.
Yesterday
High -- | Low -- °F
Precip. -- in
6:23 AM 7:23 PM
Waxing Crescent, 12% visible
Pressure 29.89 in
Visibility 10.0 miles
Clouds Clear
Dew Point 43 °F
Humidity 42%
Rainfall 0.00 in
Snow Depth Not available.
UV 0 out of 12
Pollen 7.80 out of 12
Ozone Good
PM2.5 Good
Flu Activity Not available.
METAR KCQT 290547Z AUTO 00000KT 10SM CLR 23/12 A2990 RMK AO2 SLP120 T02280122 10306 20228 51011

More Conditions Fewer Conditions

Pressure 29.89 in
Visibility 10.0 miles
Clouds Clear
Dew Point 43 °F
Humidity 42%
Rainfall 0.00 in
Snow Depth Not available.
UV 0 out of 12
Pollen 7.80 out of 12
Ozone Good
PM2.5 Good
Flu Activity Not available.
METAR KCQT 290547Z AUTO 00000KT 10SM CLR 23/12 A2990 RMK AO2 SLP120 T02280122 10306 20228 51011

More Conditions Fewer Conditions

10-Day Weather Forecast

Almanac

Astronomy

Aug. 28, 2014 Rise Set
Actual Time 6:23 AM PDT 7:23 PM PDT
Civil Twilight 5:57 AM PDT 7:49 PM PDT
Nautical Twilight 5:27 AM PDT 8:19 PM PDT
Astronomical Twilight 4:55 AM PDT 8:51 PM PDT
Moon 9:10 AM PDT (8/28) 9:01 PM PDT (8/28)
Length of Visible Light 13h 51m
Length of Day
13h 00m
Tomorrow will be 2m 0s shorter.
Waxing Crescent, 12% of the Moon is Illuminated
Aug 29
Waxing Crescent
Sep 2
First Quarter
Sep 8
Full
Sep 15
Last Quarter
Sep 24
New

Community

WunderPhotos

Upload Photos

1,748,197 photos uploaded!

Nearby

Air Quality

  Air Quality AQ Index Pollutant
Yesterday Moderate
OZONE
Yesterday Moderate
PM2.5
Current Good
PM2.5
Current Good
OZONE
Friday Good
PM10
Friday Moderate
OZONE
Friday Good
CO
Friday Good
NO2

Snow Depth

Station Depth Elevation
Leavitt Lake 1 in 9400 ft
Leavitt Meadows 1 in 7200 ft
Summit Meadow 0 in 9122 ft
Monitor Pass 1 in 8350 ft
Blue Lakes 0 in 8000 ft

Earthquake Activity

City Distance Mag. Time & Date
San Fernando, California 17 miles 2.5 4:57 AM PDT
2014-08-26
Minimum magnitude displayed is 2.5.

Coastal Water Temperatures

Place Temperature
Santa Monica Pier 69.1 °F
Los Angeles, CA 64.9 °F
La Jolla, CA 73.0 °F

Nearby Weather Stations